createdAt,value
2022-12-23T00:00:28.069Z,2.48
2022-12-23T00:02:54.701Z,2.47
2022-12-23T00:05:21.423Z,2.50
2022-12-23T00:07:47.967Z,2.46
2022-12-23T00:10:14.538Z,2.51
2022-12-23T00:12:59.206Z,2.54
2022-12-23T00:15:25.908Z,2.54
2022-12-23T00:17:52.388Z,2.48
2022-12-23T00:20:19.212Z,2.45
2022-12-23T00:23:04.534Z,2.43
2022-12-23T00:25:41.300Z,2.47
2022-12-23T00:28:13.120Z,2.49
2022-12-23T00:30:59.523Z,2.48
2022-12-23T00:33:29.208Z,2.52
2022-12-23T00:35:56.569Z,2.52
2022-12-23T00:38:41.510Z,2.53
2022-12-23T00:41:37.101Z,2.49
2022-12-23T00:44:04.697Z,2.50
2022-12-23T00:46:31.814Z,2.49
2022-12-23T00:49:17.113Z,2.47
2022-12-23T00:51:43.720Z,2.44
2022-12-23T00:54:10.303Z,2.41
2022-12-23T00:56:36.906Z,2.38
2022-12-23T00:59:03.976Z,2.32
2022-12-23T01:01:48.960Z,2.35
2022-12-23T01:04:36.174Z,2.41
2022-12-23T01:07:03.631Z,2.47
2022-12-23T01:09:30.797Z,2.60
2022-12-23T01:11:57.677Z,2.58
2022-12-23T01:14:24.205Z,2.60
2022-12-23T01:16:50.833Z,2.64
2022-12-23T01:19:17.483Z,2.65
2022-12-23T01:21:44.067Z,2.59
2022-12-23T01:24:10.587Z,2.58
2022-12-23T01:26:37.228Z,2.60
2022-12-23T01:29:03.777Z,2.65
2022-12-23T01:31:30.319Z,2.66
2022-12-23T01:33:56.885Z,2.63
2022-12-23T01:36:23.727Z,2.57
2022-12-23T01:38:50.260Z,2.59
2022-12-23T01:42:01.467Z,2.58
2022-12-23T01:44:51.272Z,2.58
2022-12-23T01:47:20.776Z,2.60
2022-12-23T01:49:49.350Z,2.58
2022-12-23T01:52:16.436Z,2.65
2022-12-23T01:54:44.241Z,2.60
2022-12-23T01:57:11.128Z,2.59
2022-12-23T01:59:56.395Z,2.63
2022-12-23T02:02:41.976Z,2.64
2022-12-23T02:05:08.724Z,2.69
2022-12-23T02:07:54.571Z,2.75
2022-12-23T02:10:26.045Z,2.86
2022-12-23T02:13:16.926Z,2.77
2022-12-23T02:16:11.041Z,2.79
2022-12-23T02:18:46.471Z,2.79
2022-12-23T02:21:21.813Z,2.82
2022-12-23T02:24:42.564Z,2.94
2022-12-23T02:27:09.496Z,3.01
2022-12-23T02:30:03.641Z,3.02
2022-12-23T02:32:35.389Z,3.00
2022-12-23T02:35:10.386Z,3.03
2022-12-23T02:38:21.437Z,3.10
2022-12-23T02:41:01.470Z,3.10
2022-12-23T02:43:46.769Z,3.20
2022-12-23T02:46:13.453Z,3.31
2022-12-23T02:48:53.311Z,3.49
2022-12-23T02:51:22.652Z,3.57
2022-12-23T02:53:56.268Z,3.63
2022-12-23T02:56:25.816Z,3.57
2022-12-23T02:59:11.214Z,3.55
2022-12-23T03:01:39.404Z,3.63
2022-12-23T03:04:06.898Z,3.73
2022-12-23T03:06:39.461Z,3.69
2022-12-23T03:09:06.888Z,3.66
2022-12-23T03:11:40.388Z,3.64
2022-12-23T03:14:36.419Z,3.63
2022-12-23T03:17:08.867Z,3.66
2022-12-23T03:19:47.070Z,3.74
2022-12-23T03:22:25.180Z,3.77
2022-12-23T03:25:00.604Z,3.83
2022-12-23T03:27:43.073Z,3.86
2022-12-23T03:30:12.910Z,3.93
2022-12-23T03:32:45.664Z,3.89
2022-12-23T03:35:15.607Z,3.92
2022-12-23T03:37:47.899Z,3.86
2022-12-23T03:40:23.771Z,3.93
2022-12-23T03:42:56.811Z,4.03
2022-12-23T03:45:40.725Z,4.08
2022-12-23T03:48:23.126Z,4.24
2022-12-23T03:50:54.515Z,4.27
2022-12-23T03:53:27.184Z,4.41
2022-12-23T03:56:03.056Z,4.45
2022-12-23T03:59:00.147Z,4.43
2022-12-23T04:01:45.970Z,4.39
2022-12-23T04:04:27.030Z,4.26
2022-12-23T04:07:17.407Z,4.20
2022-12-23T04:09:44.961Z,4.16
2022-12-23T04:12:11.783Z,4.15
2022-12-23T04:14:44.539Z,4.16
2022-12-23T04:17:11.413Z,4.14
2022-12-23T04:19:37.924Z,4.16
2022-12-23T04:22:04.419Z,4.15
2022-12-23T04:24:31.037Z,4.14
2022-12-23T04:26:57.560Z,4.14
2022-12-23T04:29:24.071Z,4.14
2022-12-23T04:31:50.679Z,4.13
2022-12-23T04:34:17.266Z,4.14
2022-12-23T04:36:43.766Z,4.10
2022-12-23T04:39:10.308Z,4.10
2022-12-23T04:41:36.790Z,4.11
2022-12-23T04:44:05.676Z,4.08
2022-12-23T04:46:32.186Z,4.10
2022-12-23T04:48:58.756Z,4.05
2022-12-23T04:51:25.251Z,4.05
2022-12-23T04:53:51.737Z,4.08
2022-12-23T04:56:18.311Z,4.07
2022-12-23T04:58:44.869Z,4.06
2022-12-23T05:01:12.706Z,4.06
2022-12-23T05:03:40.136Z,4.08
2022-12-23T05:06:07.557Z,4.07
2022-12-23T05:08:34.448Z,4.04
2022-12-23T05:11:01.023Z,4.03
2022-12-23T05:13:27.545Z,4.02
2022-12-23T05:15:55.139Z,4.01
2022-12-23T05:18:22.291Z,3.96
2022-12-23T05:20:49.625Z,3.95
2022-12-23T05:23:16.154Z,3.95
2022-12-23T05:25:42.705Z,3.97
2022-12-23T05:28:09.579Z,3.87
2022-12-23T05:30:36.128Z,3.83
2022-12-23T05:33:02.683Z,3.83
2022-12-23T05:35:29.169Z,3.79
2022-12-23T05:37:57.005Z,3.78
2022-12-23T05:40:24.317Z,3.83
2022-12-23T05:42:56.099Z,3.84
2022-12-23T05:45:22.942Z,3.86
2022-12-23T05:47:49.458Z,3.89
2022-12-23T05:50:15.993Z,3.88
2022-12-23T05:52:42.511Z,3.81
2022-12-23T05:55:09.262Z,3.79
2022-12-23T05:57:35.797Z,3.82
2022-12-23T06:00:03.999Z,3.88
2022-12-23T06:02:30.658Z,3.89
2022-12-23T06:04:57.497Z,3.90
2022-12-23T06:07:24.024Z,3.88
2022-12-23T06:09:50.565Z,3.82
2022-12-23T06:12:17.090Z,3.81
2022-12-23T06:14:43.591Z,3.76
2022-12-23T06:17:10.106Z,3.82
2022-12-23T06:19:36.643Z,3.87
2022-12-23T06:22:03.206Z,4.04
2022-12-23T06:24:29.730Z,4.09
2022-12-23T06:26:57.439Z,4.14
2022-12-23T06:29:24.927Z,4.42
2022-12-23T06:31:51.561Z,4.56
2022-12-23T06:34:18.241Z,4.80
2022-12-23T06:36:44.776Z,5.03
2022-12-23T06:39:11.633Z,5.57
2022-12-23T06:45:18.724Z,5.77
2022-12-23T06:55:33.143Z,6.50
2022-12-23T07:05:40.958Z,6.89
2022-12-23T07:39:29.652Z,7.33
2022-12-23T07:45:26.484Z,7.43
2022-12-23T08:02:54.104Z,7.78
2022-12-23T08:21:00.902Z,8.96
2022-12-23T08:27:47.085Z,8.84
2022-12-23T08:34:08.155Z,8.84
2022-12-23T08:36:36.246Z,8.83
2022-12-23T08:57:56.068Z,8.72
2022-12-23T09:04:09.683Z,8.98
2022-12-23T09:06:41.583Z,8.95
2022-12-23T09:09:10.082Z,9.02
2022-12-23T09:11:37.543Z,9.11
2022-12-23T09:14:05.851Z,9.33
2022-12-23T09:16:32.649Z,9.58
2022-12-23T09:18:59.266Z,9.75
2022-12-23T09:21:25.842Z,9.98
2022-12-23T09:23:52.784Z,10.36
2022-12-23T09:26:25.097Z,10.47
2022-12-23T09:28:52.419Z,10.75
2022-12-23T09:31:19.911Z,10.83
2022-12-23T09:33:48.479Z,11.02
2022-12-23T09:36:15.497Z,10.91
2022-12-23T09:38:42.146Z,10.88
2022-12-23T09:41:33.456Z,10.73
2022-12-23T09:44:20.328Z,10.51
2022-12-23T09:46:56.180Z,10.36
2022-12-23T09:49:23.995Z,10.39
2022-12-23T09:51:55.817Z,10.54
2022-12-23T09:54:31.487Z,10.63
2022-12-23T09:57:47.523Z,10.63
2022-12-23T10:00:16.919Z,10.39
2022-12-23T10:03:02.031Z,10.44
2022-12-23T10:05:35.353Z,10.47
2022-12-23T10:08:10.527Z,10.44
2022-12-23T10:10:44.774Z,10.49
2022-12-23T10:13:26.742Z,10.49
2022-12-23T10:39:02.875Z,10.56
2022-12-23T10:49:10.470Z,10.75
2022-12-23T10:55:41.498Z,10.78
2022-12-23T11:02:13.650Z,10.76
2022-12-23T11:04:45.176Z,10.74
2022-12-23T11:10:53.938Z,11.29
2022-12-23T11:17:05.132Z,11.41
2022-12-23T12:37:55.985Z,10.34
2022-12-23T13:17:24.678Z,9.86
2022-12-23T14:10:21.770Z,9.21
2022-12-23T14:17:05.681Z,9.01
2022-12-23T15:36:29.911Z,8.45
2022-12-23T16:02:24.965Z,8.45
2022-12-23T16:05:24.628Z,8.42
2022-12-23T16:12:31.863Z,8.43
2022-12-23T16:38:22.454Z,8.28
2022-12-23T16:40:54.446Z,8.29
2022-12-23T16:43:25.218Z,8.25
2022-12-23T16:45:55.531Z,8.22
2022-12-23T16:48:36.551Z,8.22
2022-12-23T16:55:14.159Z,8.23
2022-12-23T17:10:04.844Z,8.14
2022-12-23T18:09:36.226Z,7.95
2022-12-23T18:12:03.128Z,7.96
2022-12-23T18:14:31.883Z,8.05
2022-12-23T18:20:42.868Z,8.14
2022-12-23T18:23:15.114Z,8.10
2022-12-23T18:30:08.842Z,8.27
2022-12-23T18:32:36.050Z,8.35
2022-12-23T18:35:03.336Z,8.52
2022-12-23T18:38:02.274Z,8.64
2022-12-23T18:40:33.415Z,8.77
2022-12-23T18:43:05.229Z,8.82
2022-12-23T18:50:06.910Z,9.26
2022-12-23T18:56:54.186Z,9.28
2022-12-23T19:14:47.844Z,9.34
2022-12-23T19:25:19.526Z,9.37
2022-12-23T20:15:49.100Z,9.23
2022-12-23T20:26:29.083Z,9.22
2022-12-23T20:33:54.686Z,9.21
2022-12-23T20:46:49.619Z,9.28
2022-12-23T20:54:03.086Z,9.53
2022-12-23T20:55:16.775Z,9.71
2022-12-23T20:58:38.500Z,9.79
2022-12-23T21:01:22.117Z,9.86
2022-12-23T21:03:52.738Z,9.96
2022-12-23T21:06:48.656Z,10.04
2022-12-23T21:12:22.896Z,10.11
2022-12-23T21:19:49.090Z,10.11
2022-12-23T21:25:49.760Z,10.12
2022-12-23T21:29:32.261Z,10.08
2022-12-23T21:39:33.944Z,9.44
2022-12-23T21:42:16.206Z,9.25
2022-12-23T21:44:46.051Z,9.12
2022-12-23T21:51:21.508Z,8.95
2022-12-23T21:53:56.185Z,8.88
2022-12-23T21:56:25.487Z,8.81
2022-12-23T21:59:04.642Z,8.78
2022-12-23T22:01:32.648Z,8.76
2022-12-23T22:03:59.520Z,8.69
2022-12-23T22:06:34.046Z,8.71
2022-12-23T22:09:00.607Z,8.65
2022-12-23T22:11:30.495Z,8.66
2022-12-23T22:13:58.865Z,8.60
2022-12-23T22:16:27.238Z,8.59
2022-12-23T22:18:55.186Z,8.57
2022-12-23T22:21:59.331Z,8.52
2022-12-23T22:24:35.891Z,8.51
2022-12-23T22:30:44.354Z,8.46
2022-12-23T22:33:31.309Z,8.51
2022-12-23T22:36:30.002Z,8.58
2022-12-23T22:39:05.366Z,8.90
2022-12-23T22:41:34.022Z,9.06
2022-12-23T22:44:06.159Z,9.10
2022-12-23T22:46:38.847Z,9.11
2022-12-23T22:49:05.709Z,9.19
2022-12-23T22:51:59.438Z,9.25
2022-12-23T22:54:26.244Z,9.21
2022-12-23T22:57:50.796Z,9.24
2022-12-23T23:00:46.170Z,9.27
2022-12-23T23:03:15.058Z,9.29
2022-12-23T23:06:06.644Z,9.31
2022-12-23T23:09:55.743Z,9.25
2022-12-23T23:13:30.871Z,9.23
2022-12-23T23:19:49.903Z,9.13
2022-12-23T23:22:21.215Z,9.15
2022-12-23T23:24:55.090Z,9.10
2022-12-23T23:27:21.695Z,9.03
2022-12-23T23:30:20.467Z,8.94
2022-12-23T23:33:16.506Z,8.90
2022-12-23T23:39:21.523Z,8.91
2022-12-23T23:41:48.487Z,8.94
2022-12-23T23:44:36.961Z,8.95
2022-12-23T23:48:33.170Z,9.01
2022-12-23T23:51:00.529Z,9.15
2022-12-23T23:53:46.901Z,9.16
